createdAt,value
2023-04-19T00:01:28.480Z,62.74
2023-04-19T00:03:52.468Z,61.74
2023-04-19T00:06:17.718Z,61.31
2023-04-19T00:08:41.311Z,61.54
2023-04-19T00:11:05.033Z,60.60
2023-04-19T00:13:28.534Z,60.11
2023-04-19T00:15:52.127Z,59.73
2023-04-19T00:18:15.731Z,60.01
2023-04-19T00:20:40.428Z,59.57
2023-04-19T00:23:05.704Z,60.20
2023-04-19T00:25:31.046Z,59.08
2023-04-19T00:27:54.550Z,58.78
2023-04-19T00:30:18.278Z,58.69
2023-04-19T00:32:41.849Z,59.32
2023-04-19T00:35:05.975Z,59.08
2023-04-19T00:37:29.627Z,59.15
2023-04-19T00:39:54.647Z,58.77
2023-04-19T00:42:18.202Z,58.44
2023-04-19T00:44:44.128Z,59.10
2023-04-19T00:47:07.916Z,59.64
2023-04-19T00:49:31.883Z,59.34
2023-04-19T00:51:55.910Z,59.10
2023-04-19T00:54:20.896Z,59.29
2023-04-19T00:56:47.882Z,59.75
2023-04-19T00:59:16.237Z,59.01
2023-04-19T01:01:40.424Z,60.30
2023-04-19T01:04:04.547Z,58.57
2023-04-19T01:06:29.966Z,59.06
2023-04-19T01:08:53.927Z,58.75
2023-04-19T01:11:19.289Z,59.11
2023-04-19T01:13:44.291Z,59.02
2023-04-19T01:16:08.954Z,60.00
2023-04-19T01:18:37.501Z,59.93
2023-04-19T01:21:01.730Z,59.45
2023-04-19T01:23:26.715Z,60.47
2023-04-19T01:25:50.265Z,60.04
2023-04-19T01:28:13.970Z,59.86
2023-04-19T01:30:37.847Z,60.58
2023-04-19T01:33:01.538Z,60.68
2023-04-19T01:35:26.526Z,61.15
2023-04-19T01:37:50.692Z,61.15
2023-04-19T01:40:17.203Z,61.90
2023-04-19T01:42:40.857Z,61.68
2023-04-19T01:45:04.899Z,61.92
2023-04-19T01:47:29.059Z,61.93
2023-04-19T01:49:52.595Z,61.74
2023-04-19T01:52:16.187Z,61.96
2023-04-19T01:54:39.720Z,62.56
2023-04-19T01:57:04.730Z,62.41
2023-04-19T01:59:28.351Z,63.32
2023-04-19T02:01:52.352Z,63.09
2023-04-19T02:04:16.311Z,63.74
2023-04-19T02:06:40.289Z,63.47
2023-04-19T02:09:04.387Z,63.76
2023-04-19T02:11:28.063Z,64.26
2023-04-19T02:13:53.160Z,64.54
2023-04-19T02:16:16.801Z,64.53
2023-04-19T02:18:40.719Z,64.54
2023-04-19T02:21:04.392Z,64.67
2023-04-19T02:23:27.993Z,65.17
2023-04-19T02:25:52.080Z,64.24
2023-04-19T02:28:15.601Z,65.46
2023-04-19T02:30:40.592Z,65.40
2023-04-19T02:33:04.162Z,65.20
2023-04-19T02:35:28.496Z,65.86
2023-04-19T02:37:55.041Z,66.16
2023-04-19T02:40:18.786Z,66.08
2023-04-19T02:42:42.309Z,66.00
2023-04-19T02:45:07.057Z,66.60
2023-04-19T02:47:32.021Z,66.49
2023-04-19T02:49:55.757Z,66.97
2023-04-19T02:52:19.374Z,67.80
2023-04-19T02:54:43.037Z,67.42
2023-04-19T02:57:06.731Z,68.00
2023-04-19T02:59:30.627Z,66.94
2023-04-19T03:01:56.844Z,67.79
2023-04-19T03:04:23.276Z,66.87
2023-04-19T03:06:46.885Z,67.24
2023-04-19T03:09:10.741Z,68.63
2023-04-19T03:11:34.342Z,69.40
2023-04-19T03:13:57.910Z,69.02
2023-04-19T03:16:21.581Z,70.16
2023-04-19T03:18:47.966Z,71.52
2023-04-19T03:21:14.698Z,70.60
2023-04-19T03:23:50.271Z,71.24
2023-04-19T03:26:14.267Z,71.19
2023-04-19T03:28:41.630Z,70.96
2023-04-19T03:31:22.316Z,71.36
2023-04-19T03:33:47.771Z,71.76
2023-04-19T03:36:11.650Z,72.42
2023-04-19T03:38:40.867Z,72.23
2023-04-19T03:41:20.426Z,72.84
2023-04-19T03:43:46.516Z,72.86
2023-04-19T03:46:10.279Z,73.30
2023-04-19T03:48:35.729Z,74.80
2023-04-19T03:50:59.415Z,74.82
2023-04-19T03:53:23.088Z,76.36
2023-04-19T03:55:47.986Z,76.73
2023-04-19T03:58:11.726Z,76.83
2023-04-19T04:00:44.007Z,77.17
2023-04-19T04:03:07.720Z,77.31
2023-04-19T04:05:32.010Z,78.63
2023-04-19T04:07:57.835Z,79.00
2023-04-19T04:10:22.351Z,79.16
2023-04-19T04:12:47.343Z,79.31
2023-04-19T04:15:17.348Z,79.71
2023-04-19T04:17:45.246Z,78.95
2023-04-19T04:20:11.923Z,79.25
2023-04-19T04:22:35.669Z,79.41
2023-04-19T04:25:01.416Z,78.93
2023-04-19T04:27:31.321Z,80.57
2023-04-19T04:29:56.806Z,80.04
2023-04-19T04:32:23.565Z,79.83
2023-04-19T04:34:51.835Z,81.06
2023-04-19T04:37:24.408Z,80.39
2023-04-19T04:39:49.155Z,80.85
2023-04-19T04:42:13.577Z,80.65
2023-04-19T04:44:37.570Z,80.82
2023-04-19T04:47:03.243Z,79.92
2023-04-19T04:49:32.057Z,81.37
2023-04-19T04:51:55.980Z,81.46
2023-04-19T04:54:20.164Z,81.18
2023-04-19T04:56:44.649Z,81.60
2023-04-19T04:59:08.963Z,81.12
2023-04-19T05:01:36.232Z,81.40
2023-04-19T05:04:02.581Z,81.37
2023-04-19T05:06:26.665Z,80.70
2023-04-19T05:08:50.657Z,80.80
2023-04-19T05:11:22.449Z,79.90
2023-04-19T05:13:46.125Z,79.38
2023-04-19T05:16:10.564Z,80.19
2023-04-19T05:18:36.134Z,80.01
2023-04-19T05:21:01.307Z,79.32
2023-04-19T05:23:28.460Z,78.60
2023-04-19T05:25:52.131Z,78.77
2023-04-19T05:28:17.509Z,78.31
2023-04-19T05:30:54.016Z,78.66
2023-04-19T05:33:20.393Z,78.91
2023-04-19T05:35:45.402Z,77.74
2023-04-19T05:38:10.352Z,78.20
2023-04-19T05:40:35.539Z,77.41
2023-04-19T05:42:59.198Z,75.85
2023-04-19T05:45:23.756Z,76.66
2023-04-19T05:47:47.642Z,76.33
2023-04-19T05:50:21.071Z,76.67
2023-04-19T05:53:00.583Z,75.65
2023-04-19T05:55:25.820Z,75.01
2023-04-19T05:57:49.378Z,75.38
2023-04-19T06:00:14.394Z,74.66
2023-04-19T06:02:44.690Z,74.58
2023-04-19T06:05:11.761Z,73.91
2023-04-19T06:10:01.731Z,71.80
2023-04-19T06:12:26.981Z,70.55
2023-04-19T06:14:51.214Z,68.68
2023-04-19T06:17:16.544Z,66.55
2023-04-19T06:19:40.116Z,66.57
2023-04-19T06:22:03.732Z,64.71
2023-04-19T06:24:27.608Z,60.75
2023-04-19T06:26:51.158Z,61.91
2023-04-19T06:29:16.174Z,60.11
2023-04-19T06:31:39.965Z,59.40
2023-04-19T06:34:03.743Z,59.23
2023-04-19T06:36:27.477Z,56.12
2023-04-19T06:38:51.164Z,56.45
2023-04-19T06:41:14.869Z,54.05
2023-04-19T06:43:40.729Z,54.24
2023-04-19T06:46:06.390Z,52.83
2023-04-19T06:48:30.231Z,50.90
2023-04-19T06:50:53.777Z,53.02
2023-04-19T06:53:17.409Z,50.42
2023-04-19T06:55:40.961Z,50.20
2023-04-19T06:58:04.623Z,48.09
2023-04-19T07:00:29.514Z,48.83
2023-04-19T07:02:54.693Z,48.33
2023-04-19T07:05:18.362Z,48.57
2023-04-19T07:07:42.301Z,47.51
2023-04-19T07:10:06.784Z,48.11
2023-04-19T07:12:30.418Z,46.83
2023-04-19T07:14:57.239Z,47.34
2023-04-19T07:17:21.028Z,46.44
2023-04-19T07:19:49.643Z,45.83
2023-04-19T07:22:14.790Z,46.56
2023-04-19T07:24:40.332Z,46.34
2023-04-19T07:27:03.979Z,48.19
2023-04-19T07:29:27.532Z,48.06
2023-04-19T07:31:51.357Z,45.75
2023-04-19T07:34:15.203Z,47.36
2023-04-19T07:36:40.519Z,47.06
2023-04-19T07:39:04.825Z,47.65
2023-04-19T07:41:28.605Z,47.64
2023-04-19T07:43:52.147Z,46.77
2023-04-19T07:46:17.151Z,46.60
2023-04-19T07:48:40.940Z,46.99
2023-04-19T07:51:11.429Z,47.02
2023-04-19T07:53:36.469Z,43.50
2023-04-19T07:56:00.009Z,46.12
2023-04-19T07:58:23.649Z,45.19
2023-04-19T08:00:47.374Z,44.39
2023-04-19T08:03:11.556Z,45.63
2023-04-19T08:05:36.246Z,45.11
2023-04-19T08:07:59.903Z,44.91
2023-04-19T08:10:25.899Z,43.89
2023-04-19T08:13:04.344Z,43.40
2023-04-19T08:16:15.220Z,44.11
2023-04-19T08:18:12.979Z,43.86
2023-04-19T08:20:36.891Z,43.30
2023-04-19T08:23:10.508Z,44.15
2023-04-19T08:25:39.765Z,43.65
2023-04-19T08:28:03.374Z,43.31
2023-04-19T08:30:27.028Z,43.65
2023-04-19T08:32:51.069Z,43.49
2023-04-19T08:35:15.704Z,43.03
2023-04-19T08:37:39.376Z,42.83
2023-04-19T08:40:03.911Z,42.98
2023-04-19T08:42:36.561Z,43.37
2023-04-19T08:47:34.779Z,42.95
2023-04-19T08:50:14.095Z,42.09
2023-04-19T08:52:54.811Z,43.47
2023-04-19T08:55:21.704Z,42.21
2023-04-19T08:57:46.700Z,42.31
2023-04-19T09:00:11.516Z,41.85
2023-04-19T09:02:48.743Z,42.04
2023-04-19T09:05:13.892Z,42.02
2023-04-19T09:07:37.582Z,41.12
2023-04-19T09:10:08.875Z,42.08
2023-04-19T09:12:33.060Z,41.85
2023-04-19T09:15:01.831Z,42.92
2023-04-19T09:17:26.135Z,42.70
2023-04-19T09:19:50.664Z,43.28
2023-04-19T09:22:15.149Z,41.93
2023-04-19T09:27:10.538Z,40.02
2023-04-19T09:29:34.163Z,40.08
2023-04-19T09:32:02.254Z,39.50
2023-04-19T09:34:28.375Z,39.09
2023-04-19T09:37:00.717Z,40.06
2023-04-19T09:39:33.984Z,39.46
2023-04-19T09:41:58.361Z,40.96
2023-04-19T09:46:53.295Z,42.87
2023-04-19T09:49:33.767Z,40.58
2023-04-19T09:52:06.663Z,38.16
2023-04-19T09:54:32.474Z,38.36
2023-04-19T09:56:57.950Z,39.03
2023-04-19T09:59:23.242Z,39.33
2023-04-19T10:01:49.036Z,37.89
2023-04-19T10:04:24.105Z,38.00
2023-04-19T10:09:24.159Z,36.69
2023-04-19T10:11:54.208Z,38.17
2023-04-19T10:14:24.557Z,37.50
2023-04-19T10:16:48.742Z,37.34
2023-04-19T10:19:16.247Z,36.94
2023-04-19T10:21:41.301Z,36.96
2023-04-19T10:24:07.667Z,37.24
2023-04-19T10:26:31.355Z,39.17
2023-04-19T10:28:57.410Z,37.90
2023-04-19T10:31:23.754Z,38.38
2023-04-19T10:33:49.337Z,37.14
2023-04-19T10:36:17.627Z,37.12
2023-04-19T10:38:44.428Z,39.32
2023-04-19T10:41:17.091Z,37.17
2023-04-19T10:43:42.658Z,37.37
2023-04-19T10:46:10.181Z,37.62
2023-04-19T10:48:38.735Z,37.84
2023-04-19T10:51:04.343Z,37.32
2023-04-19T10:53:52.224Z,36.57
2023-04-19T10:56:19.143Z,38.24
2023-04-19T10:59:21.412Z,36.78
2023-04-19T11:01:47.384Z,36.77
2023-04-19T11:04:13.009Z,39.22
2023-04-19T11:06:37.698Z,38.23
2023-04-19T11:09:03.052Z,36.42
2023-04-19T11:11:28.150Z,37.90
2023-04-19T11:13:51.758Z,38.23
2023-04-19T11:16:17.726Z,38.50
2023-04-19T11:18:42.524Z,37.92
2023-04-19T11:21:06.750Z,35.95
2023-04-19T11:23:30.353Z,36.76
2023-04-19T11:25:54.218Z,37.26
2023-04-19T11:28:19.376Z,37.18
2023-04-19T11:30:43.210Z,36.50
2023-04-19T11:33:06.903Z,36.50
2023-04-19T11:35:31.477Z,37.14
2023-04-19T11:37:56.312Z,36.67
2023-04-19T11:40:21.819Z,36.03
2023-04-19T11:42:45.731Z,37.26
2023-04-19T11:45:25.932Z,36.75
2023-04-19T11:47:53.248Z,36.73
2023-04-19T11:50:34.986Z,38.77
2023-04-19T11:52:58.936Z,37.46
2023-04-19T11:55:23.901Z,38.11
2023-04-19T11:57:50.050Z,37.76
2023-04-19T12:00:17.093Z,37.34
2023-04-19T12:02:43.851Z,38.05
2023-04-19T12:05:12.470Z,37.41
2023-04-19T12:07:36.724Z,37.54
2023-04-19T12:10:11.467Z,37.80
2023-04-19T12:12:35.172Z,38.22
2023-04-19T12:14:58.702Z,37.51
2023-04-19T12:17:23.775Z,38.34
2023-04-19T12:19:49.061Z,40.25
2023-04-19T12:22:14.867Z,38.27
2023-04-19T12:24:39.642Z,39.22
2023-04-19T12:27:03.883Z,38.22
2023-04-19T12:29:28.484Z,39.18
2023-04-19T12:31:52.152Z,39.93
2023-04-19T12:34:17.160Z,39.17
2023-04-19T12:36:41.062Z,38.60
2023-04-19T12:39:04.840Z,39.27
2023-04-19T12:41:30.884Z,39.20
2023-04-19T12:43:54.444Z,37.95
2023-04-19T12:46:18.294Z,38.24
2023-04-19T12:48:41.906Z,36.97
2023-04-19T12:51:07.308Z,38.39
2023-04-19T12:53:31.081Z,39.39
2023-04-19T12:55:54.812Z,36.57
2023-04-19T12:58:19.215Z,35.20
2023-04-19T13:00:42.893Z,35.40
2023-04-19T13:03:06.812Z,37.45
2023-04-19T13:05:30.678Z,34.43
2023-04-19T13:07:55.592Z,33.37
2023-04-19T13:10:19.419Z,33.66
2023-04-19T13:12:43.123Z,34.17
2023-04-19T13:15:08.369Z,32.92
2023-04-19T13:17:32.070Z,34.24
2023-04-19T13:19:56.667Z,33.48
2023-04-19T13:22:20.257Z,34.15
2023-04-19T13:24:45.277Z,34.23
2023-04-19T13:27:09.444Z,34.73
2023-04-19T13:29:33.192Z,34.83
2023-04-19T13:31:57.146Z,34.93
2023-04-19T13:34:21.138Z,35.36
2023-04-19T13:36:44.967Z,34.82
2023-04-19T13:39:08.889Z,35.88
2023-04-19T13:41:34.090Z,35.13
2023-04-19T13:43:57.719Z,35.61
2023-04-19T13:46:21.470Z,35.46
2023-04-19T13:48:45.133Z,34.99
2023-04-19T13:51:08.998Z,36.08
2023-04-19T13:53:32.688Z,36.36
2023-04-19T13:55:56.892Z,37.25
2023-04-19T13:58:21.924Z,36.64
2023-04-19T14:00:45.824Z,37.65
2023-04-19T14:03:09.784Z,37.46
2023-04-19T14:05:34.832Z,37.93
2023-04-19T14:07:59.191Z,39.18
2023-04-19T14:10:23.067Z,39.21
2023-04-19T14:12:47.946Z,38.85
2023-04-19T14:15:14.320Z,39.28
2023-04-19T14:17:38.665Z,39.65
2023-04-19T14:20:03.408Z,38.00
2023-04-19T14:22:28.673Z,38.57
2023-04-19T14:24:52.213Z,38.34
2023-04-19T14:27:15.822Z,39.80
2023-04-19T14:29:39.410Z,39.14
2023-04-19T14:32:20.777Z,38.17
2023-04-19T14:34:47.597Z,39.25
2023-04-19T14:37:11.171Z,39.49
2023-04-19T14:39:35.214Z,39.05
2023-04-19T14:41:58.875Z,41.19
2023-04-19T14:44:22.505Z,40.42
2023-04-19T14:46:46.532Z,40.57
2023-04-19T14:49:11.606Z,42.55
2023-04-19T14:51:35.464Z,44.12
2023-04-19T14:53:59.702Z,45.43
2023-04-19T14:56:23.487Z,45.51
2023-04-19T14:58:47.279Z,47.42
2023-04-19T15:01:14.577Z,50.33
2023-04-19T15:03:38.628Z,51.69
2023-04-19T15:06:05.285Z,54.12
2023-04-19T15:08:30.582Z,54.01
2023-04-19T15:10:54.572Z,61.98
2023-04-19T15:13:18.304Z,66.86
2023-04-19T15:15:42.178Z,69.10
2023-04-19T15:18:05.951Z,72.97
2023-04-19T15:20:29.891Z,72.61
2023-04-19T15:22:55.223Z,76.27
2023-04-19T15:25:19.746Z,75.93
2023-04-19T15:27:43.678Z,77.27
2023-04-19T15:30:09.079Z,76.80
2023-04-19T15:32:34.388Z,76.08
2023-04-19T15:34:58.349Z,77.98
2023-04-19T15:37:22.132Z,77.47
2023-04-19T15:39:49.543Z,77.60
2023-04-19T15:42:13.234Z,78.27
2023-04-19T15:44:36.842Z,79.92
2023-04-19T15:47:00.501Z,78.82
2023-04-19T15:49:24.203Z,78.99
2023-04-19T15:51:48.293Z,81.02
2023-04-19T15:54:15.295Z,79.47
2023-04-19T15:56:41.159Z,80.55
2023-04-19T15:59:05.388Z,78.68
2023-04-19T16:01:29.786Z,79.17
2023-04-19T16:03:54.601Z,77.81
2023-04-19T16:06:22.559Z,77.46
2023-04-19T16:08:47.760Z,80.29
2023-04-19T16:11:11.838Z,81.04
2023-04-19T16:13:36.896Z,81.55
2023-04-19T16:16:01.398Z,78.27
2023-04-19T16:18:25.353Z,82.49
2023-04-19T16:20:49.038Z,82.36
2023-04-19T16:23:14.559Z,81.03
2023-04-19T16:25:38.708Z,80.79
2023-04-19T16:28:03.584Z,81.55
2023-04-19T16:30:44.373Z,80.70
2023-04-19T16:33:08.105Z,80.68
2023-04-19T16:35:32.123Z,81.89
2023-04-19T16:38:04.638Z,82.47
2023-04-19T16:40:29.216Z,81.12
2023-04-19T16:42:58.270Z,81.71
2023-04-19T16:45:21.990Z,83.87
2023-04-19T16:47:48.129Z,82.32
2023-04-19T16:50:12.181Z,81.89
2023-04-19T16:52:36.860Z,81.76
2023-04-19T16:55:03.249Z,83.52
2023-04-19T16:57:27.031Z,84.14
2023-04-19T16:59:50.963Z,83.73
2023-04-19T17:02:14.679Z,84.25
2023-04-19T17:04:40.689Z,85.13
2023-04-19T17:07:04.655Z,85.90
2023-04-19T17:09:28.404Z,84.73
2023-04-19T17:11:51.936Z,85.40
2023-04-19T17:14:15.811Z,86.03
2023-04-19T17:16:39.526Z,84.66
2023-04-19T17:19:03.405Z,86.10
2023-04-19T17:21:28.693Z,87.66
2023-04-19T17:23:52.321Z,86.47
2023-04-19T17:26:17.001Z,88.62
2023-04-19T17:28:41.707Z,88.75
2023-04-19T17:31:05.521Z,88.28
2023-04-19T17:33:29.159Z,89.93
2023-04-19T17:35:52.939Z,88.96
2023-04-19T17:38:18.022Z,90.61
2023-04-19T17:40:41.910Z,90.16
2023-04-19T17:43:06.092Z,91.42
2023-04-19T17:45:29.807Z,91.96
2023-04-19T17:47:56.241Z,91.32
2023-04-19T17:50:20.018Z,90.31
2023-04-19T17:52:43.754Z,90.29
2023-04-19T17:55:10.354Z,89.12
2023-04-19T17:57:34.824Z,90.23
2023-04-19T17:59:58.420Z,90.40
2023-04-19T18:02:22.195Z,89.53
2023-04-19T18:04:45.958Z,89.62
2023-04-19T18:07:09.794Z,91.44
2023-04-19T18:09:33.406Z,90.79
2023-04-19T18:11:58.480Z,89.02
2023-04-19T18:14:22.064Z,88.69
2023-04-19T18:16:45.705Z,91.02
2023-04-19T18:19:09.309Z,89.69
2023-04-19T18:21:33.696Z,91.96
2023-04-19T18:23:57.264Z,91.80
2023-04-19T18:26:21.503Z,90.83
2023-04-19T18:28:46.437Z,90.64
2023-04-19T18:31:10.858Z,91.14
2023-04-19T18:33:34.787Z,90.43
2023-04-19T18:35:58.974Z,89.12
2023-04-19T18:38:22.704Z,91.41
2023-04-19T18:40:46.356Z,90.61
2023-04-19T18:43:09.983Z,91.49
2023-04-19T18:45:35.438Z,91.13
2023-04-19T18:48:01.250Z,91.50
2023-04-19T18:50:25.054Z,89.62
2023-04-19T18:52:48.907Z,90.86
2023-04-19T18:55:14.221Z,91.66
2023-04-19T18:57:38.924Z,90.87
2023-04-19T19:00:05.250Z,90.13
2023-04-19T19:02:30.811Z,91.31
2023-04-19T19:04:58.551Z,92.22
2023-04-19T19:09:56.179Z,92.57
2023-04-19T19:12:20.445Z,93.71
2023-04-19T19:14:44.987Z,93.62
2023-04-19T19:17:08.677Z,92.93
2023-04-19T19:19:33.977Z,93.07
2023-04-19T19:21:57.883Z,92.57
2023-04-19T19:24:22.032Z,92.03
2023-04-19T19:26:45.969Z,90.83
2023-04-19T19:29:09.650Z,91.57
2023-04-19T19:31:33.576Z,91.27
2023-04-19T19:34:13.779Z,92.19
2023-04-19T19:36:44.330Z,91.88
2023-04-19T19:39:08.069Z,93.51
2023-04-19T19:42:03.692Z,91.72
2023-04-19T19:44:15.753Z,92.38
2023-04-19T19:46:40.226Z,92.49
2023-04-19T19:49:05.857Z,92.08
2023-04-19T19:54:01.412Z,92.05
2023-04-19T19:56:25.048Z,91.85
2023-04-19T19:58:51.393Z,93.44
2023-04-19T20:01:16.150Z,93.24
2023-04-19T20:03:40.164Z,94.04
2023-04-19T20:06:35.686Z,92.10
2023-04-19T20:08:50.464Z,93.32
2023-04-19T20:11:16.706Z,92.36
2023-04-19T20:13:40.705Z,92.46
2023-04-19T20:16:06.989Z,94.32
2023-04-19T20:18:31.483Z,93.70
2023-04-19T20:20:55.283Z,92.01
2023-04-19T20:23:22.401Z,91.51
2023-04-19T20:25:47.055Z,93.46
2023-04-19T20:28:16.161Z,92.69
2023-04-19T20:30:39.927Z,92.83
2023-04-19T20:33:03.886Z,92.30
2023-04-19T20:35:27.586Z,92.11
2023-04-19T20:37:52.058Z,92.88
2023-04-19T20:40:16.830Z,93.14
2023-04-19T20:42:40.889Z,92.37
2023-04-19T20:45:06.998Z,91.94
2023-04-19T20:47:32.112Z,91.90
2023-04-19T20:49:55.948Z,92.20
2023-04-19T20:52:19.661Z,93.94
2023-04-19T20:54:43.350Z,92.78
2023-04-19T20:57:07.717Z,94.77
2023-04-19T20:59:33.685Z,94.02
2023-04-19T21:02:00.176Z,93.22
2023-04-19T21:04:24.108Z,93.85
2023-04-19T21:06:48.418Z,93.56
2023-04-19T21:09:12.105Z,93.88
2023-04-19T21:11:35.774Z,92.80
2023-04-19T21:13:59.441Z,92.51
2023-04-19T21:16:23.243Z,91.31
2023-04-19T21:18:48.306Z,92.04
2023-04-19T21:21:12.166Z,91.55
2023-04-19T21:23:35.927Z,92.69
2023-04-19T21:26:02.652Z,92.93
2023-04-19T21:28:29.271Z,92.88
2023-04-19T21:30:53.730Z,92.97
2023-04-19T21:33:18.397Z,91.33
2023-04-19T21:35:47.710Z,91.62
2023-04-19T21:38:17.209Z,92.01
2023-04-19T21:40:46.488Z,91.99
2023-04-19T21:43:17.932Z,92.23
2023-04-19T21:45:49.566Z,92.31
2023-04-19T21:48:14.176Z,91.36
2023-04-19T21:50:46.368Z,91.85
2023-04-19T21:53:11.173Z,91.31
2023-04-19T21:55:36.192Z,90.49
2023-04-19T21:58:00.150Z,90.94
2023-04-19T22:00:25.513Z,91.70
2023-04-19T22:02:52.485Z,91.06
2023-04-19T22:05:16.743Z,91.31
2023-04-19T22:07:42.038Z,90.97
2023-04-19T22:10:09.124Z,92.17
2023-04-19T22:12:33.992Z,91.30
2023-04-19T22:14:58.817Z,92.22
2023-04-19T22:17:23.277Z,92.02
2023-04-19T22:19:47.747Z,91.08
2023-04-19T22:22:11.407Z,90.02
2023-04-19T22:24:43.959Z,90.80
2023-04-19T22:27:17.663Z,92.61
2023-04-19T22:29:41.522Z,93.49
2023-04-19T22:32:09.932Z,92.29
2023-04-19T22:34:33.753Z,91.48
2023-04-19T22:36:57.732Z,91.72
2023-04-19T22:39:21.475Z,92.10
2023-04-19T22:41:47.100Z,91.48
2023-04-19T22:44:10.798Z,90.71
2023-04-19T22:46:34.764Z,91.61
2023-04-19T22:48:58.421Z,91.13
2023-04-19T22:51:22.454Z,91.46
2023-04-19T22:53:46.173Z,90.10
2023-04-19T22:56:09.764Z,90.31
2023-04-19T22:58:35.131Z,90.57
2023-04-19T23:00:58.880Z,90.45
2023-04-19T23:03:22.743Z,91.47
2023-04-19T23:05:47.324Z,91.15
2023-04-19T23:08:10.960Z,91.13
2023-04-19T23:10:37.948Z,91.42
2023-04-19T23:13:01.719Z,91.48
2023-04-19T23:15:29.863Z,91.44
2023-04-19T23:17:55.007Z,91.33
2023-04-19T23:20:18.972Z,91.19
2023-04-19T23:22:43.420Z,91.35
2023-04-19T23:25:08.952Z,91.32
2023-04-19T23:27:33.958Z,90.81
2023-04-19T23:29:57.918Z,90.82
2023-04-19T23:32:22.954Z,91.23
2023-04-19T23:34:46.603Z,90.66
2023-04-19T23:37:10.247Z,90.49
2023-04-19T23:39:34.163Z,90.06
2023-04-19T23:41:58.039Z,90.57
2023-04-19T23:44:21.960Z,90.62
2023-04-19T23:46:45.751Z,91.80
2023-04-19T23:49:11.009Z,90.60
2023-04-19T23:51:34.679Z,90.41
2023-04-19T23:53:58.256Z,90.00
2023-04-19T23:56:21.835Z,91.42
2023-04-19T23:58:45.715Z,90.53
